sensor_id;sensor_type;location;lat;lon;timestamp;pressure;altitude;pressure_sealevel;temperature;humidity
76378;BME280;65200;49.500;8.654;2024-03-23T00:53:43;99585.94;;;16.81;54.07
76378;BME280;65200;49.500;8.654;2024-03-23T00:56:09;99582.44;;;17.02;53.27
76378;BME280;65200;49.500;8.654;2024-03-23T00:58:35;99588.34;;;16.78;52.83
76378;BME280;65200;49.500;8.654;2024-03-23T01:01:01;99571.44;;;17.09;53.65
76378;BME280;65200;49.500;8.654;2024-03-23T01:03:29;99567.75;;;16.98;53.46
76378;BME280;65200;49.500;8.654;2024-03-23T01:05:54;99567.47;;;17.16;51.92
76378;BME280;65200;49.500;8.654;2024-03-23T01:08:21;99574.50;;;16.58;54.61
76378;BME280;65200;49.500;8.654;2024-03-23T01:10:55;99576.25;;;16.47;54.27
76378;BME280;65200;49.500;8.654;2024-03-23T01:13:22;99566.34;;;16.74;53.89
76378;BME280;65200;49.500;8.654;2024-03-23T01:15:48;99568.81;;;16.76;53.32
76378;BME280;65200;49.500;8.654;2024-03-23T01:18:15;99567.53;;;16.62;54.46
76378;BME280;65200;49.500;8.654;2024-03-23T01:20:41;99561.03;;;16.63;54.59
76378;BME280;65200;49.500;8.654;2024-03-23T01:23:07;99556.06;;;16.93;54.07
76378;BME280;65200;49.500;8.654;2024-03-23T01:25:33;99549.00;;;16.92;53.70
76378;BME280;65200;49.500;8.654;2024-03-23T01:28:01;99553.66;;;17.39;53.09
76378;BME280;65200;49.500;8.654;2024-03-23T01:30:27;99551.09;;;17.28;53.80
76378;BME280;65200;49.500;8.654;2024-03-23T01:32:53;99538.00;;;17.20;53.21
76378;BME280;65200;49.500;8.654;2024-03-23T01:35:19;99542.56;;;17.19;52.78
76378;BME280;65200;49.500;8.654;2024-03-23T01:37:46;99532.19;;;17.11;52.81
76378;BME280;65200;49.500;8.654;2024-03-23T01:40:12;99525.34;;;17.25;51.96
76378;BME280;65200;49.500;8.654;2024-03-23T01:42:39;99534.59;;;17.08;53.34
76378;BME280;65200;49.500;8.654;2024-03-23T01:45:08;99516.53;;;17.13;52.79
76378;BME280;65200;49.500;8.654;2024-03-23T01:47:35;99522.47;;;17.37;52.80
76378;BME280;65200;49.500;8.654;2024-03-23T01:50:01;99521.22;;;17.23;52.61
76378;BME280;65200;49.500;8.654;2024-03-23T01:52:28;99523.50;;;17.31;52.72
76378;BME280;65200;49.500;8.654;2024-03-23T01:54:54;99511.16;;;17.18;53.25
76378;BME280;65200;49.500;8.654;2024-03-23T01:57:20;99518.50;;;17.44;51.50
76378;BME280;65200;49.500;8.654;2024-03-23T01:59:46;99492.19;;;17.40;53.04
76378;BME280;65200;49.500;8.654;2024-03-23T02:02:14;99505.31;;;17.26;53.12
76378;BME280;65200;49.500;8.654;2024-03-23T02:04:43;99487.56;;;17.14;52.35
76378;BME280;65200;49.500;8.654;2024-03-23T02:07:09;99511.63;;;17.37;53.35
76378;BME280;65200;49.500;8.654;2024-03-23T02:09:35;99507.75;;;17.06;53.15
76378;BME280;65200;49.500;8.654;2024-03-23T02:12:04;99503.97;;;17.29;52.07
76378;BME280;65200;49.500;8.654;2024-03-23T02:14:30;99495.50;;;17.20;53.24
76378;BME280;65200;49.500;8.654;2024-03-23T02:16:58;99497.31;;;17.15;52.18
76378;BME280;65200;49.500;8.654;2024-03-23T02:19:25;99495.44;;;16.94;53.56
76378;BME280;65200;49.500;8.654;2024-03-23T02:21:51;99490.41;;;16.81;54.01
76378;BME280;65200;49.500;8.654;2024-03-23T02:24:18;99483.53;;;17.16;53.64
76378;BME280;65200;49.500;8.654;2024-03-23T02:26:48;99493.28;;;16.74;54.62
76378;BME280;65200;49.500;8.654;2024-03-23T02:29:14;99487.94;;;16.79;53.55
76378;BME280;65200;49.500;8.654;2024-03-23T02:31:40;99494.59;;;16.93;54.35
76378;BME280;65200;49.500;8.654;2024-03-23T02:34:06;99487.25;;;16.67;54.79
76378;BME280;65200;49.500;8.654;2024-03-23T02:36:33;99492.16;;;16.92;54.88
76378;BME280;65200;49.500;8.654;2024-03-23T02:38:58;99487.75;;;16.86;53.92
76378;BME280;65200;49.500;8.654;2024-03-23T02:41:26;99493.53;;;17.16;52.74
76378;BME280;65200;49.500;8.654;2024-03-23T02:43:52;99498.91;;;16.89;55.09
76378;BME280;65200;49.500;8.654;2024-03-23T02:46:19;99501.94;;;16.93;53.71
76378;BME280;65200;49.500;8.654;2024-03-23T02:48:44;99503.03;;;16.54;55.83
76378;BME280;65200;49.500;8.654;2024-03-23T02:51:11;99502.78;;;16.55;55.56
76378;BME280;65200;49.500;8.654;2024-03-23T02:53:37;99511.41;;;16.52;55.64
76378;BME280;65200;49.500;8.654;2024-03-23T02:56:04;99505.91;;;16.30;57.22
76378;BME280;65200;49.500;8.654;2024-03-23T02:58:31;99509.19;;;15.99;57.57
76378;BME280;65200;49.500;8.654;2024-03-23T03:00:58;99503.94;;;16.26;56.85
76378;BME280;65200;49.500;8.654;2024-03-23T03:03:24;99507.03;;;16.34;56.66
76378;BME280;65200;49.500;8.654;2024-03-23T03:05:55;99506.50;;;16.16;57.07
76378;BME280;65200;49.500;8.654;2024-03-23T03:08:20;99505.47;;;16.38;57.66
76378;BME280;65200;49.500;8.654;2024-03-23T03:10:47;99497.22;;;16.45;56.44
76378;BME280;65200;49.500;8.654;2024-03-23T03:13:13;99498.44;;;16.37;55.95
76378;BME280;65200;49.500;8.654;2024-03-23T03:15:41;99505.50;;;16.05;57.04
76378;BME280;65200;49.500;8.654;2024-03-23T03:18:06;99505.16;;;16.18;56.46
76378;BME280;65200;49.500;8.654;2024-03-23T03:20:33;99504.31;;;16.34;56.43
76378;BME280;65200;49.500;8.654;2024-03-23T03:23:00;99505.41;;;16.33;55.87
76378;BME280;65200;49.500;8.654;2024-03-23T03:25:26;99499.00;;;16.56;55.69
76378;BME280;65200;49.500;8.654;2024-03-23T03:27:52;99490.28;;;16.71;55.43
76378;BME280;65200;49.500;8.654;2024-03-23T03:30:19;99482.78;;;16.39;56.71
76378;BME280;65200;49.500;8.654;2024-03-23T03:32:49;99480.06;;;16.39;56.89
76378;BME280;65200;49.500;8.654;2024-03-23T03:35:16;99477.09;;;16.19;57.86
76378;BME280;65200;49.500;8.654;2024-03-23T03:37:41;99471.84;;;15.96;58.53
76378;BME280;65200;49.500;8.654;2024-03-23T03:40:09;99479.13;;;16.12;58.09
76378;BME280;65200;49.500;8.654;2024-03-23T03:42:34;99487.72;;;15.76;58.96
76378;BME280;65200;49.500;8.654;2024-03-23T03:45:02;99489.69;;;15.81;58.38
76378;BME280;65200;49.500;8.654;2024-03-23T03:47:32;99478.72;;;15.87;57.68
76378;BME280;65200;49.500;8.654;2024-03-23T03:50:00;99479.22;;;16.01;57.16
76378;BME280;65200;49.500;8.654;2024-03-23T03:52:26;99480.13;;;16.06;58.39
76378;BME280;65200;49.500;8.654;2024-03-23T03:54:55;99485.28;;;15.75;58.38
76378;BME280;65200;49.500;8.654;2024-03-23T03:57:21;99474.81;;;15.78;58.73
76378;BME280;65200;49.500;8.654;2024-03-23T03:59:50;99461.97;;;15.85;58.04
76378;BME280;65200;49.500;8.654;2024-03-23T04:02:16;99468.25;;;15.91;57.59
76378;BME280;65200;49.500;8.654;2024-03-23T04:04:43;99471.34;;;15.99;58.33
76378;BME280;65200;49.500;8.654;2024-03-23T04:07:10;99462.84;;;15.74;58.04
76378;BME280;65200;49.500;8.654;2024-03-23T04:09:36;99460.13;;;15.91;57.30
76378;BME280;65200;49.500;8.654;2024-03-23T04:12:02;99457.44;;;15.91;57.09
76378;BME280;65200;49.500;8.654;2024-03-23T04:14:31;99460.69;;;15.60;57.54
76378;BME280;65200;49.500;8.654;2024-03-23T04:16:57;99452.19;;;15.84;56.65
76378;BME280;65200;49.500;8.654;2024-03-23T04:19:26;99444.09;;;15.84;56.10
76378;BME280;65200;49.500;8.654;2024-03-23T04:21:52;99442.38;;;15.95;55.29
76378;BME280;65200;49.500;8.654;2024-03-23T04:24:20;99449.41;;;15.96;55.96
76378;BME280;65200;49.500;8.654;2024-03-23T04:26:48;99437.38;;;16.03;56.06
76378;BME280;65200;49.500;8.654;2024-03-23T04:29:14;99438.09;;;15.99;55.42
76378;BME280;65200;49.500;8.654;2024-03-23T04:31:40;99446.13;;;15.94;56.55
76378;BME280;65200;49.500;8.654;2024-03-23T04:34:06;99453.81;;;16.02;56.28
76378;BME280;65200;49.500;8.654;2024-03-23T04:36:32;99461.88;;;15.97;55.86
76378;BME280;65200;49.500;8.654;2024-03-23T04:38:59;99455.88;;;15.62;57.01
76378;BME280;65200;49.500;8.654;2024-03-23T04:41:28;99457.09;;;15.87;56.41
76378;BME280;65200;49.500;8.654;2024-03-23T04:43:55;99458.09;;;15.81;56.50
76378;BME280;65200;49.500;8.654;2024-03-23T04:46:22;99461.28;;;15.95;56.73
76378;BME280;65200;49.500;8.654;2024-03-23T04:48:49;99459.88;;;16.09;56.04
76378;BME280;65200;49.500;8.654;2024-03-23T04:51:22;99452.53;;;15.71;55.85
76378;BME280;65200;49.500;8.654;2024-03-23T04:53:50;99466.94;;;15.77;55.72
76378;BME280;65200;49.500;8.654;2024-03-23T04:56:17;99470.56;;;15.38;57.14
76378;BME280;65200;49.500;8.654;2024-03-23T04:58:45;99472.00;;;15.57;56.04
76378;BME280;65200;49.500;8.654;2024-03-23T05:01:11;99463.31;;;15.55;56.85
76378;BME280;65200;49.500;8.654;2024-03-23T05:03:38;99479.38;;;15.33;57.22
76378;BME280;65200;49.500;8.654;2024-03-23T05:06:04;99491.63;;;15.52;57.52
76378;BME280;65200;49.500;8.654;2024-03-23T05:08:31;99482.16;;;15.66;57.16
76378;BME280;65200;49.500;8.654;2024-03-23T05:10:57;99490.75;;;15.63;57.53
76378;BME280;65200;49.500;8.654;2024-03-23T05:13:24;99498.84;;;15.07;57.63
76378;BME280;65200;49.500;8.654;2024-03-23T05:15:53;99492.56;;;14.90;57.91
76378;BME280;65200;49.500;8.654;2024-03-23T05:18:19;99511.34;;;14.85;58.90
76378;BME280;65200;49.500;8.654;2024-03-23T05:20:45;99521.13;;;14.74;58.93
76378;BME280;65200;49.500;8.654;2024-03-23T05:23:11;99531.66;;;14.76;59.74
76378;BME280;65200;49.500;8.654;2024-03-23T05:25:38;99536.16;;;14.36;60.04
76378;BME280;65200;49.500;8.654;2024-03-23T05:28:04;99545.34;;;14.17;61.41
76378;BME280;65200;49.500;8.654;2024-03-23T05:30:31;99588.66;;;13.81;62.57
76378;BME280;65200;49.500;8.654;2024-03-23T05:32:58;99582.53;;;12.72;66.11
76378;BME280;65200;49.500;8.654;2024-03-23T05:35:24;99607.22;;;12.19;68.52
76378;BME280;65200;49.500;8.654;2024-03-23T05:37:50;99618.91;;;11.69;68.40
76378;BME280;65200;49.500;8.654;2024-03-23T05:40:17;99608.78;;;11.71;68.12
76378;BME280;65200;49.500;8.654;2024-03-23T05:42:42;99610.09;;;11.93;68.51
76378;BME280;65200;49.500;8.654;2024-03-23T05:45:09;99622.47;;;11.50;67.63
76378;BME280;65200;49.500;8.654;2024-03-23T05:47:36;99617.91;;;11.13;67.25
76378;BME280;65200;49.500;8.654;2024-03-23T05:50:07;99631.19;;;11.46;67.04
76378;BME280;65200;49.500;8.654;2024-03-23T05:52:32;99638.66;;;11.37;67.86
76378;BME280;65200;49.500;8.654;2024-03-23T05:55:00;99653.41;;;11.59;66.75
76378;BME280;65200;49.500;8.654;2024-03-23T05:57:25;99656.47;;;11.63;67.07
76378;BME280;65200;49.500;8.654;2024-03-23T05:59:52;99668.91;;;11.64;67.42
76378;BME280;65200;49.500;8.654;2024-03-23T06:02:18;99682.50;;;11.69;66.59
76378;BME280;65200;49.500;8.654;2024-03-23T06:04:45;99698.22;;;11.59;65.71
76378;BME280;65200;49.500;8.654;2024-03-23T06:07:12;99697.03;;;11.42;66.07
76378;BME280;65200;49.500;8.654;2024-03-23T06:09:39;99712.75;;;11.89;64.87
76378;BME280;65200;49.500;8.654;2024-03-23T06:12:05;99717.28;;;11.95;65.19
76378;BME280;65200;49.500;8.654;2024-03-23T06:14:32;99725.88;;;11.72;64.46
76378;BME280;65200;49.500;8.654;2024-03-23T06:16:58;99721.75;;;11.57;63.94
76378;BME280;65200;49.500;8.654;2024-03-23T06:19:25;99712.28;;;12.05;63.08
76378;BME280;65200;49.500;8.654;2024-03-23T06:21:52;99734.06;;;11.84;62.70
76378;BME280;65200;49.500;8.654;2024-03-23T06:24:21;99754.09;;;11.81;61.92
76378;BME280;65200;49.500;8.654;2024-03-23T06:26:46;99762.41;;;11.67;62.99
76378;BME280;65200;49.500;8.654;2024-03-23T06:29:13;99767.78;;;11.73;62.66
76378;BME280;65200;49.500;8.654;2024-03-23T06:31:39;99764.06;;;11.68;62.78
76378;BME280;65200;49.500;8.654;2024-03-23T06:34:05;99767.19;;;11.52;63.90
76378;BME280;65200;49.500;8.654;2024-03-23T06:36:31;99756.53;;;11.96;62.07
76378;BME280;65200;49.500;8.654;2024-03-23T06:38:58;99759.53;;;11.68;63.40
76378;BME280;65200;49.500;8.654;2024-03-23T06:41:25;99757.84;;;11.80;63.30
76378;BME280;65200;49.500;8.654;2024-03-23T06:43:52;99763.78;;;11.89;62.23
76378;BME280;65200;49.500;8.654;2024-03-23T06:46:18;99779.47;;;11.92;63.74
76378;BME280;65200;49.500;8.654;2024-03-23T06:48:44;99782.84;;;11.61;63.51
76378;BME280;65200;49.500;8.654;2024-03-23T06:51:10;99789.34;;;12.04;62.59
76378;BME280;65200;49.500;8.654;2024-03-23T06:53:37;99779.72;;;11.84;60.97
76378;BME280;65200;49.500;8.654;2024-03-23T06:56:03;99785.31;;;11.63;61.69
76378;BME280;65200;49.500;8.654;2024-03-23T06:58:32;99802.88;;;11.59;61.59
76378;BME280;65200;49.500;8.654;2024-03-23T07:00:58;99810.94;;;11.72;61.39
76378;BME280;65200;49.500;8.654;2024-03-23T07:03:24;99824.56;;;11.77;61.03
76378;BME280;65200;49.500;8.654;2024-03-23T07:05:51;99815.41;;;11.91;61.63
76378;BME280;65200;49.500;8.654;2024-03-23T07:08:18;99829.22;;;12.01;61.43
76378;BME280;65200;49.500;8.654;2024-03-23T07:10:47;99829.41;;;12.06;60.59
76378;BME280;65200;49.500;8.654;2024-03-23T07:13:14;99833.97;;;11.99;60.17
76378;BME280;65200;49.500;8.654;2024-03-23T07:15:41;99827.22;;;11.83;61.82
76378;BME280;65200;49.500;8.654;2024-03-23T07:18:07;99855.50;;;11.79;60.37
76378;BME280;65200;49.500;8.654;2024-03-23T07:20:33;99848.75;;;11.38;62.10
76378;BME280;65200;49.500;8.654;2024-03-23T07:23:00;99864.19;;;11.62;61.40
76378;BME280;65200;49.500;8.654;2024-03-23T07:25:26;99862.34;;;11.69;60.11
76378;BME280;65200;49.500;8.654;2024-03-23T07:27:54;99871.59;;;11.86;61.10
76378;BME280;65200;49.500;8.654;2024-03-23T07:30:20;99872.25;;;11.16;61.41
76378;BME280;65200;49.500;8.654;2024-03-23T07:32:48;99889.19;;;11.49;59.97
76378;BME280;65200;49.500;8.654;2024-03-23T07:35:14;99896.38;;;11.09;60.28
76378;BME280;65200;49.500;8.654;2024-03-23T07:37:41;99897.66;;;11.40;59.75
76378;BME280;65200;49.500;8.654;2024-03-23T07:40:08;99909.84;;;11.68;59.80
76378;BME280;65200;49.500;8.654;2024-03-23T07:42:34;99920.56;;;11.68;58.00
76378;BME280;65200;49.500;8.654;2024-03-23T07:45:00;99925.94;;;11.75;58.38
76378;BME280;65200;49.500;8.654;2024-03-23T07:47:27;99927.38;;;11.51;57.20
76378;BME280;65200;49.500;8.654;2024-03-23T07:49:54;99939.75;;;11.26;58.50
76378;BME280;65200;49.500;8.654;2024-03-23T07:52:21;99951.69;;;11.11;59.01
76378;BME280;65200;49.500;8.654;2024-03-23T07:54:47;99953.16;;;11.20;58.88
76378;BME280;65200;49.500;8.654;2024-03-23T07:57:13;99970.69;;;11.09;60.31
76378;BME280;65200;49.500;8.654;2024-03-23T07:59:42;99974.16;;;11.03;60.20
76378;BME280;65200;49.500;8.654;2024-03-23T08:02:09;99966.16;;;11.29;59.80
76378;BME280;65200;49.500;8.654;2024-03-23T08:04:36;99977.34;;;11.59;59.93
76378;BME280;65200;49.500;8.654;2024-03-23T08:07:04;99984.31;;;11.40;58.63
76378;BME280;65200;49.500;8.654;2024-03-23T08:09:30;99978.19;;;11.92;59.42
76378;BME280;65200;49.500;8.654;2024-03-23T08:11:56;99991.41;;;11.87;57.82
76378;BME280;65200;49.500;8.654;2024-03-23T08:14:22;99974.66;;;11.98;58.38
76378;BME280;65200;49.500;8.654;2024-03-23T08:16:54;99987.28;;;11.84;58.31
76378;BME280;65200;49.500;8.654;2024-03-23T08:19:22;99991.00;;;11.64;58.03
76378;BME280;65200;49.500;8.654;2024-03-23T08:21:53;99994.69;;;11.89;58.21
76378;BME280;65200;49.500;8.654;2024-03-23T08:24:21;100006.69;;;11.67;57.32
76378;BME280;65200;49.500;8.654;2024-03-23T08:26:47;100015.50;;;11.35;57.94
76378;BME280;65200;49.500;8.654;2024-03-23T08:29:13;100020.69;;;11.62;57.25
76378;BME280;65200;49.500;8.654;2024-03-23T08:31:40;100027.94;;;11.68;55.93
76378;BME280;65200;49.500;8.654;2024-03-23T08:34:06;100023.00;;;11.98;54.90
76378;BME280;65200;49.500;8.654;2024-03-23T08:36:32;100020.94;;;11.74;54.93
76378;BME280;65200;49.500;8.654;2024-03-23T08:38:58;100023.75;;;11.40;53.69
76378;BME280;65200;49.500;8.654;2024-03-23T08:41:26;100030.22;;;11.78;53.62
76378;BME280;65200;49.500;8.654;2024-03-23T08:43:55;100021.03;;;12.51;52.68
76378;BME280;65200;49.500;8.654;2024-03-23T08:46:22;100019.00;;;12.39;53.13
76378;BME280;65200;49.500;8.654;2024-03-23T08:48:47;100018.25;;;12.13;53.40
76378;BME280;65200;49.500;8.654;2024-03-23T08:51:16;100019.25;;;12.18;53.31
76378;BME280;65200;49.500;8.654;2024-03-23T08:53:43;100033.91;;;12.42;52.12
76378;BME280;65200;49.500;8.654;2024-03-23T08:56:10;100022.81;;;12.89;51.65
76378;BME280;65200;49.500;8.654;2024-03-23T08:58:38;100024.19;;;13.05;52.89
76378;BME280;65200;49.500;8.654;2024-03-23T09:01:06;100034.16;;;12.91;50.93
76378;BME280;65200;49.500;8.654;2024-03-23T09:03:32;100043.75;;;13.62;50.61
76378;BME280;65200;49.500;8.654;2024-03-23T09:05:59;100035.22;;;12.84;50.06
76378;BME280;65200;49.500;8.654;2024-03-23T09:08:25;100043.72;;;12.81;51.66
76378;BME280;65200;49.500;8.654;2024-03-23T09:10:52;100042.25;;;13.35;50.63
76378;BME280;65200;49.500;8.654;2024-03-23T09:13:18;100051.19;;;13.29;50.31
76378;BME280;65200;49.500;8.654;2024-03-23T09:15:47;100052.13;;;13.10;50.28
76378;BME280;65200;49.500;8.654;2024-03-23T09:18:13;100060.72;;;12.75;50.64
76378;BME280;65200;49.500;8.654;2024-03-23T09:20:40;100066.72;;;12.57;50.21
76378;BME280;65200;49.500;8.654;2024-03-23T09:23:05;100076.50;;;12.32;50.07
76378;BME280;65200;49.500;8.654;2024-03-23T09:25:36;100061.16;;;12.65;52.41
76378;BME280;65200;49.500;8.654;2024-03-23T09:28:02;100061.31;;;12.70;49.05
76378;BME280;65200;49.500;8.654;2024-03-23T09:30:29;100060.66;;;13.01;52.19
76378;BME280;65200;49.500;8.654;2024-03-23T09:32:56;100046.50;;;13.18;48.28
76378;BME280;65200;49.500;8.654;2024-03-23T09:35:22;100048.84;;;13.02;50.44
76378;BME280;65200;49.500;8.654;2024-03-23T09:37:48;100047.47;;;12.80;49.92
76378;BME280;65200;49.500;8.654;2024-03-23T09:40:15;100044.53;;;12.88;50.02
76378;BME280;65200;49.500;8.654;2024-03-23T09:42:41;100046.56;;;12.99;50.18
76378;BME280;65200;49.500;8.654;2024-03-23T09:45:17;100042.81;;;13.00;50.60
76378;BME280;65200;49.500;8.654;2024-03-23T09:47:47;100048.09;;;13.26;49.53
76378;BME280;65200;49.500;8.654;2024-03-23T09:50:15;100055.28;;;12.94;48.10
76378;BME280;65200;49.500;8.654;2024-03-23T09:52:41;100042.97;;;13.18;47.39
76378;BME280;65200;49.500;8.654;2024-03-23T09:55:08;100056.94;;;12.82;47.48
76378;BME280;65200;49.500;8.654;2024-03-23T09:57:35;100041.50;;;12.65;47.34
76378;BME280;65200;49.500;8.654;2024-03-23T10:00:01;100041.78;;;13.07;46.89
76378;BME280;65200;49.500;8.654;2024-03-23T10:02:28;100037.06;;;12.90;45.98
76378;BME280;65200;49.500;8.654;2024-03-23T10:04:55;100031.75;;;13.27;46.56
76378;BME280;65200;49.500;8.654;2024-03-23T10:07:25;100045.16;;;13.34;46.31
76378;BME280;65200;49.500;8.654;2024-03-23T10:09:53;100038.66;;;14.04;46.01
76378;BME280;65200;49.500;8.654;2024-03-23T10:12:19;100026.56;;;14.37;45.06
76378;BME280;65200;49.500;8.654;2024-03-23T10:14:46;100032.53;;;14.39;44.28
76378;BME280;65200;49.500;8.654;2024-03-23T10:17:14;100035.69;;;14.12;43.40
76378;BME280;65200;49.500;8.654;2024-03-23T10:19:43;100022.66;;;13.59;43.61
76378;BME280;65200;49.500;8.654;2024-03-23T10:22:10;100022.75;;;13.96;43.00
76378;BME280;65200;49.500;8.654;2024-03-23T10:24:38;100029.78;;;14.46;41.08
76378;BME280;65200;49.500;8.654;2024-03-23T10:27:04;100027.41;;;13.89;40.82
76378;BME280;65200;49.500;8.654;2024-03-23T10:29:30;100027.63;;;14.54;41.44
76378;BME280;65200;49.500;8.654;2024-03-23T10:32:07;100015.88;;;14.49;42.18
76378;BME280;65200;49.500;8.654;2024-03-23T10:34:33;100018.63;;;14.60;42.54
76378;BME280;65200;49.500;8.654;2024-03-23T10:37:04;100006.13;;;14.48;41.84
76378;BME280;65200;49.500;8.654;2024-03-23T10:39:34;100027.44;;;14.31;40.03
76378;BME280;65200;49.500;8.654;2024-03-23T10:42:06;100041.91;;;13.56;41.01
76378;BME280;65200;49.500;8.654;2024-03-23T10:44:33;100039.13;;;13.69;40.03
76378;BME280;65200;49.500;8.654;2024-03-23T10:47:00;100030.50;;;13.61;40.26
76378;BME280;65200;49.500;8.654;2024-03-23T10:49:29;100022.00;;;13.33;38.94
76378;BME280;65200;49.500;8.654;2024-03-23T10:51:59;100028.88;;;13.53;39.70
76378;BME280;65200;49.500;8.654;2024-03-23T10:54:25;100014.88;;;14.19;37.90
76378;BME280;65200;49.500;8.654;2024-03-23T10:56:56;100020.84;;;14.70;38.42
76378;BME280;65200;49.500;8.654;2024-03-23T10:59:25;100019.34;;;15.22;38.60
76378;BME280;65200;49.500;8.654;2024-03-23T11:01:55;100012.28;;;14.91;39.54
76378;BME280;65200;49.500;8.654;2024-03-23T11:04:34;100020.28;;;14.79;40.65
76378;BME280;65200;49.500;8.654;2024-03-23T11:07:02;100020.13;;;14.56;40.46
76378;BME280;65200;49.500;8.654;2024-03-23T11:09:41;100023.66;;;13.90;38.97
76378;BME280;65200;49.500;8.654;2024-03-23T11:12:27;100029.25;;;13.88;38.24
76378;BME280;65200;49.500;8.654;2024-03-23T11:14:56;100009.84;;;15.01;38.25
76378;BME280;65200;49.500;8.654;2024-03-23T11:17:26;100016.03;;;14.54;36.22
76378;BME280;65200;49.500;8.654;2024-03-23T11:19:56;100009.81;;;14.71;34.17
76378;BME280;65200;49.500;8.654;2024-03-23T11:22:42;100014.69;;;14.63;36.90
76378;BME280;65200;49.500;8.654;2024-03-23T11:25:16;100023.88;;;14.37;36.57
76378;BME280;65200;49.500;8.654;2024-03-23T11:27:44;100022.13;;;14.25;36.52
76378;BME280;65200;49.500;8.654;2024-03-23T11:30:16;100014.78;;;14.32;37.82
76378;BME280;65200;49.500;8.654;2024-03-23T11:32:44;100005.81;;;14.56;38.04
76378;BME280;65200;49.500;8.654;2024-03-23T11:35:10;100000.00;;;14.41;38.34
76378;BME280;65200;49.500;8.654;2024-03-23T11:37:37;100017.09;;;14.28;40.21
76378;BME280;65200;49.500;8.654;2024-03-23T11:40:19;99992.38;;;12.89;51.27
76378;BME280;65200;49.500;8.654;2024-03-23T11:42:55;100023.53;;;12.59;47.99
76378;BME280;65200;49.500;8.654;2024-03-23T11:45:22;100025.78;;;12.62;52.68
76378;BME280;65200;49.500;8.654;2024-03-23T11:48:01;100010.00;;;12.08;53.21
76378;BME280;65200;49.500;8.654;2024-03-23T11:50:27;100020.13;;;11.93;55.01
76378;BME280;65200;49.500;8.654;2024-03-23T11:53:06;100038.31;;;11.04;54.73
76378;BME280;65200;49.500;8.654;2024-03-23T11:55:39;100054.69;;;10.75;56.08
76378;BME280;65200;49.500;8.654;2024-03-23T11:58:05;100088.03;;;10.66;57.73
76378;BME280;65200;49.500;8.654;2024-03-23T12:00:33;100101.13;;;10.48;57.96
76378;BME280;65200;49.500;8.654;2024-03-23T12:03:00;100119.56;;;10.09;59.83
76378;BME280;65200;49.500;8.654;2024-03-23T12:05:26;100120.38;;;9.89;61.55
76378;BME280;65200;49.500;8.654;2024-03-23T12:07:53;100125.66;;;9.61;66.93
76378;BME280;65200;49.500;8.654;2024-03-23T12:10:19;100100.16;;;9.86;65.14
76378;BME280;65200;49.500;8.654;2024-03-23T12:12:46;100074.13;;;10.50;64.92
76378;BME280;65200;49.500;8.654;2024-03-23T12:15:11;100061.41;;;10.99;65.48
76378;BME280;65200;49.500;8.654;2024-03-23T12:17:42;100049.94;;;11.25;64.85
76378;BME280;65200;49.500;8.654;2024-03-23T12:20:08;100054.38;;;11.65;64.49
76378;BME280;65200;49.500;8.654;2024-03-23T12:22:35;100047.56;;;11.69;62.19
76378;BME280;65200;49.500;8.654;2024-03-23T12:25:01;100053.38;;;11.92;64.61
76378;BME280;65200;49.500;8.654;2024-03-23T12:27:28;100048.56;;;12.46;60.04
76378;BME280;65200;49.500;8.654;2024-03-23T12:29:53;100040.34;;;12.98;61.85
76378;BME280;65200;49.500;8.654;2024-03-23T12:32:20;100037.44;;;13.06;59.82
76378;BME280;65200;49.500;8.654;2024-03-23T12:34:47;100041.19;;;13.05;57.19
76378;BME280;65200;49.500;8.654;2024-03-23T12:37:14;100037.97;;;13.28;57.49
76378;BME280;65200;49.500;8.654;2024-03-23T12:39:41;100035.88;;;13.30;56.72
76378;BME280;65200;49.500;8.654;2024-03-23T12:42:07;100032.47;;;13.47;57.85
76378;BME280;65200;49.500;8.654;2024-03-23T12:44:33;100045.25;;;13.52;56.13
76378;BME280;65200;49.500;8.654;2024-03-23T12:47:00;100035.75;;;13.81;55.64
76378;BME280;65200;49.500;8.654;2024-03-23T12:49:27;100047.03;;;13.64;54.49
76378;BME280;65200;49.500;8.654;2024-03-23T12:51:56;100042.03;;;12.93;53.99
76378;BME280;65200;49.500;8.654;2024-03-23T12:54:22;100033.97;;;13.37;53.07
76378;BME280;65200;49.500;8.654;2024-03-23T12:56:49;100040.66;;;13.59;53.23
76378;BME280;65200;49.500;8.654;2024-03-23T12:59:15;100038.38;;;13.62;53.21
76378;BME280;65200;49.500;8.654;2024-03-23T13:01:43;100039.47;;;13.11;55.92
76378;BME280;65200;49.500;8.654;2024-03-23T13:04:12;100035.09;;;13.54;52.45
76378;BME280;65200;49.500;8.654;2024-03-23T13:06:39;100030.34;;;13.18;52.44
76378;BME280;65200;49.500;8.654;2024-03-23T13:09:08;100074.88;;;12.18;56.34
76378;BME280;65200;49.500;8.654;2024-03-23T13:11:36;100091.38;;;10.68;56.84
76378;BME280;65200;49.500;8.654;2024-03-23T13:14:01;100104.00;;;10.19;59.08
76378;BME280;65200;49.500;8.654;2024-03-23T13:16:29;100096.34;;;9.95;61.62
76378;BME280;65200;49.500;8.654;2024-03-23T13:18:55;100087.09;;;9.77;61.06
76378;BME280;65200;49.500;8.654;2024-03-23T13:21:21;100082.16;;;9.17;64.87
76378;BME280;65200;49.500;8.654;2024-03-23T13:23:48;100056.56;;;9.50;65.10
76378;BME280;65200;49.500;8.654;2024-03-23T13:26:17;100057.25;;;10.01;64.72
76378;BME280;65200;49.500;8.654;2024-03-23T13:28:43;100049.19;;;10.90;63.19
76378;BME280;65200;49.500;8.654;2024-03-23T13:31:10;100048.94;;;10.85;61.89
76378;BME280;65200;49.500;8.654;2024-03-23T13:33:36;100047.41;;;11.10;62.02
76378;BME280;65200;49.500;8.654;2024-03-23T13:36:03;100037.69;;;10.55;63.08
76378;BME280;65200;49.500;8.654;2024-03-23T13:38:32;100037.72;;;11.16;61.73
76378;BME280;65200;49.500;8.654;2024-03-23T13:41:00;100044.84;;;11.56;59.88
76378;BME280;65200;49.500;8.654;2024-03-23T13:43:27;100048.00;;;11.79;57.66
76378;BME280;65200;49.500;8.654;2024-03-23T13:45:56;100051.72;;;12.17;58.30
76378;BME280;65200;49.500;8.654;2024-03-23T13:48:23;100050.00;;;13.25;55.25